Cancún, México

2:46 AM CDT en Octubre 25, 2014 (GMT -0500)
Cancun International | Change Station
CLOSE
Current Station
Aeropuerto
Location: Cancun,
Altura: 16 ft
Estaciones meteorológicas cercanas

Alt 16 ft 21.04 °N, 86.88 °W | Updated 1 hour ago

Scattered Clouds
Nubes dispersas
75 ° F
Sensación térmica 75 ° F
N
4
Viento Variable Viento desde Norte

Hoy
Alta -- | Baja -- ° F
--% Posibilidad de precipitaciones
Ayer
Alta -- | Baja -- ° F
Precip. -- pul
6:46 AM 6:15 PM
Luna nueva, 2% visible
Presión 29.91 pul
Visibilidad 6.0 Millas
Nubes Nubes dispersas 1500 ft
Nubes dispersas 25000 ft
Punto de rocío 68 ° F
Humedad 78%
Precipitaciones 0.00 pul
Espesor de la nieve No disponible.
UV 0 de una escala de 12
Polen No disponible.
Calidad del aire No disponible.
Flu Activity No disponible.
METAR MMUN 250642Z 36003KT 6SM SCT015 SCT250 24/20 A2991 RMK 8/508

More Conditions Fewer Conditions

Presión 29.91 pul
Visibilidad 6.0 Millas
Nubes Nubes dispersas 1500 ft
Nubes dispersas 25000 ft
Punto de rocío 68 ° F
Humedad 78%
Precipitaciones 0.00 pul
Espesor de la nieve No disponible.
UV 0 de una escala de 12
Polen No disponible.
Calidad del aire No disponible.
Flu Activity No disponible.
METAR MMUN 250642Z 36003KT 6SM SCT015 SCT250 24/20 A2991 RMK 8/508

More Conditions Fewer Conditions

10-Day Weather Forecast

Almanac

Astronomía

Oct. 25, 2014 Salida Puesta
Hora real 6:46 AM CDT 6:15 PM CDT
Crepúsculo civil 6:24 AM CDT 6:38 PM CDT
Crepúsculo náutico 5:58 AM CDT 7:04 PM CDT
Crepúsculo astronómico 5:32 AM CDT 7:30 PM CDT
Luna 8:16 AM CDT 7:49 PM CDT
Horas de luz 12h 14m
Horas de luz
11h 28m
Tomorrow will be 1m 6s shorter.
Luna nueva, 2% of the Moon is Illuminated
Hoy
Luna nueva
Oct 30
Cuarto creciente
Nov 6
Luna llena
Nov 14
Cuarto menguante
Nov 22
Nueva

Extremos de ayer

Máximos del país Bajas del país

Community

WunderPhotos

Upload Photos

1,764,791 ¡fotos cargadas!

Nearby

Calidad del aire

Not available.

Grosos de nieve

Not available.

Actividad de terremotos

Ciudad Distance Mag. Tiempo y dato
No hay informes recientes de la actividad sísmica.
Magnitud mínima muestra es 2,5.

Temperaturas de aguas costeras

Lugar Temperatura
Sin partes meteorológicos de las estaciones

Estaciones meteorológicas cercanas